Overview Statistics Trail Chart Weather Telemetry Raw packets
 

This is the latest recevied weather packets stored in our database for station/object DL2GPS-3. If no packets are shown the sender has not sent any weather packets the latest 10 day(s).

<< 4 5 6 7 8 9 10 >>
Time Temp. Humidity Pressure Rain* Wind** Luminosity Snow
1788614178 21.11° C 69% 1027.4 hPa - - - -
1788613577 21.11° C 74% 1027.5 hPa - - - -
1788612976 21.11° C 74% 1027.6 hPa - - - -
1788612375 20.56° C 74% 1027.5 hPa - - - -
1788611774 20° C 75% 1027.4 hPa - - - -
1788611173 20.56° C 73% 1027.4 hPa - - - -
1788610572 20.56° C 71% 1027.4 hPa - - - -
1788609971 22.78° C 64% 1027.2 hPa - - - -
1788609370 22.78° C 64% 1027.3 hPa - - - -
1788608769 22.78° C 64% 1027.2 hPa - - - -
1788608168 23.89° C 63% 1027.2 hPa - - - -
1788607568 22.22° C 63% 1027.2 hPa - - - -
1788606967 22.22° C 68% 1027.3 hPa - - - -
1788606366 22.22° C 69% 1027.2 hPa - - - -
1788605766 21.67° C 70% 1027.3 hPa - - - -
1788605165 22.22° C 71% 1027.2 hPa - - - -
1788604564 21.11° C 77% 1027.2 hPa - - - -
1788603962 21.11° C 78% 1027.3 hPa - - - -
1788603362 21.11° C 80% 1027.1 hPa - - - -
1788602761 20° C 82% 1027 hPa - - - -
1788602160 19.44° C 85% 1026.9 hPa - - - -
1788601559 20° C 80% 1027 hPa - - - -
1788600957 21.11° C 80% 1026.8 hPa - - - -
1788600357 21.11° C 81% 1026.7 hPa - - - -
1788599772 20.56° C 82% 1026.6 hPa - - - -

* Rain since midnight (hover to see other rain measurements)
** Current wind speed in m/s (hover to see current wind gust speed)